sensor_id;sensor_type;location;lat;lon;timestamp;P1;durP1;ratioP1;P2;durP2;ratioP2
6531;SDS011;3299;42.004;24.868;2023-02-11T00:00:08;4.40;;;2.97;;
6531;SDS011;3299;42.004;24.868;2023-02-11T00:02:35;3.75;;;2.85;;
6531;SDS011;3299;42.004;24.868;2023-02-11T00:05:00;3.05;;;2.75;;
6531;SDS011;3299;42.004;24.868;2023-02-11T00:07:29;3.10;;;2.45;;
6531;SDS011;3299;42.004;24.868;2023-02-11T00:09:55;6.20;;;3.28;;
6531;SDS011;3299;42.004;24.868;2023-02-11T00:12:21;3.15;;;2.72;;
6531;SDS011;3299;42.004;24.868;2023-02-11T00:14:47;4.30;;;3.50;;
6531;SDS011;3299;42.004;24.868;2023-02-11T00:17:12;3.80;;;3.25;;
6531;SDS011;3299;42.004;24.868;2023-02-11T00:19:38;3.10;;;2.83;;
6531;SDS011;3299;42.004;24.868;2023-02-11T00:22:03;3.15;;;2.85;;
6531;SDS011;3299;42.004;24.868;2023-02-11T00:24:29;2.92;;;2.63;;
6531;SDS011;3299;42.004;24.868;2023-02-11T00:26:54;5.25;;;3.55;;
6531;SDS011;3299;42.004;24.868;2023-02-11T00:29:20;3.28;;;2.40;;
6531;SDS011;3299;42.004;24.868;2023-02-11T00:31:45;2.78;;;2.58;;
6531;SDS011;3299;42.004;24.868;2023-02-11T00:34:11;4.80;;;3.42;;
6531;SDS011;3299;42.004;24.868;2023-02-11T00:36:36;2.85;;;2.65;;
6531;SDS011;3299;42.004;24.868;2023-02-11T00:39:02;2.50;;;2.40;;
6531;SDS011;3299;42.004;24.868;2023-02-11T00:41:28;3.72;;;2.70;;
6531;SDS011;3299;42.004;24.868;2023-02-11T00:43:53;3.33;;;2.80;;
6531;SDS011;3299;42.004;24.868;2023-02-11T00:46:19;3.67;;;2.72;;
6531;SDS011;3299;42.004;24.868;2023-02-11T00:48:44;3.38;;;2.80;;
6531;SDS011;3299;42.004;24.868;2023-02-11T00:51:10;3.60;;;3.22;;
6531;SDS011;3299;42.004;24.868;2023-02-11T00:53:36;4.10;;;2.97;;
6531;SDS011;3299;42.004;24.868;2023-02-11T00:56:01;3.05;;;2.72;;
6531;SDS011;3299;42.004;24.868;2023-02-11T00:58:27;3.85;;;3.42;;
6531;SDS011;3299;42.004;24.868;2023-02-11T01:00:53;3.22;;;2.60;;
6531;SDS011;3299;42.004;24.868;2023-02-11T01:03:19;3.38;;;3.08;;
6531;SDS011;3299;42.004;24.868;2023-02-11T01:05:45;4.88;;;3.70;;
6531;SDS011;3299;42.004;24.868;2023-02-11T01:08:10;2.70;;;2.50;;
6531;SDS011;3299;42.004;24.868;2023-02-11T01:10:36;4.45;;;2.97;;
6531;SDS011;3299;42.004;24.868;2023-02-11T01:13:02;4.80;;;3.22;;
6531;SDS011;3299;42.004;24.868;2023-02-11T01:15:28;3.15;;;2.83;;
6531;SDS011;3299;42.004;24.868;2023-02-11T01:17:54;3.40;;;2.97;;
6531;SDS011;3299;42.004;24.868;2023-02-11T01:20:21;5.40;;;3.20;;
6531;SDS011;3299;42.004;24.868;2023-02-11T01:22:48;4.15;;;3.47;;
6531;SDS011;3299;42.004;24.868;2023-02-11T01:25:13;3.55;;;3.22;;
6531;SDS011;3299;42.004;24.868;2023-02-11T01:27:39;4.60;;;2.97;;
6531;SDS011;3299;42.004;24.868;2023-02-11T01:30:05;3.15;;;2.85;;
6531;SDS011;3299;42.004;24.868;2023-02-11T01:32:32;2.92;;;2.60;;
6531;SDS011;3299;42.004;24.868;2023-02-11T01:34:58;5.47;;;3.80;;
6531;SDS011;3299;42.004;24.868;2023-02-11T01:37:24;4.20;;;3.80;;
6531;SDS011;3299;42.004;24.868;2023-02-11T01:39:49;6.32;;;4.15;;
6531;SDS011;3299;42.004;24.868;2023-02-11T01:42:16;7.05;;;4.60;;
6531;SDS011;3299;42.004;24.868;2023-02-11T01:44:47;9.77;;;5.78;;
6531;SDS011;3299;42.004;24.868;2023-02-11T01:47:15;9.32;;;6.03;;
6531;SDS011;3299;42.004;24.868;2023-02-11T01:49:59;11.80;;;7.00;;
6531;SDS011;3299;42.004;24.868;2023-02-11T01:52:33;11.52;;;6.80;;
6531;SDS011;3299;42.004;24.868;2023-02-11T01:55:08;6.88;;;5.70;;
6531;SDS011;3299;42.004;24.868;2023-02-11T01:57:56;8.93;;;5.75;;
6531;SDS011;3299;42.004;24.868;2023-02-11T02:05:44;5.80;;;3.97;;
6531;SDS011;3299;42.004;24.868;2023-02-11T02:10:56;4.97;;;3.25;;
6531;SDS011;3299;42.004;24.868;2023-02-11T02:13:25;5.22;;;3.78;;
6531;SDS011;3299;42.004;24.868;2023-02-11T02:15:52;8.95;;;4.10;;
6531;SDS011;3299;42.004;24.868;2023-02-11T02:32:26;5.40;;;4.28;;
6531;SDS011;3299;42.004;24.868;2023-02-11T02:35:03;6.85;;;4.35;;
6531;SDS011;3299;42.004;24.868;2023-02-11T02:40:19;4.43;;;3.97;;
6531;SDS011;3299;42.004;24.868;2023-02-11T02:43:06;3.90;;;3.50;;
6531;SDS011;3299;42.004;24.868;2023-02-11T02:45:34;5.18;;;3.80;;
6531;SDS011;3299;42.004;24.868;2023-02-11T02:48:00;4.95;;;3.80;;
6531;SDS011;3299;42.004;24.868;2023-02-11T02:50:30;3.65;;;3.35;;
6531;SDS011;3299;42.004;24.868;2023-02-11T02:53:03;4.45;;;3.58;;
6531;SDS011;3299;42.004;24.868;2023-02-11T03:01:11;4.15;;;3.40;;
6531;SDS011;3299;42.004;24.868;2023-02-11T03:09:32;4.15;;;3.28;;
6531;SDS011;3299;42.004;24.868;2023-02-11T03:11:59;4.53;;;3.10;;
6531;SDS011;3299;42.004;24.868;2023-02-11T03:14:26;5.28;;;3.58;;
6531;SDS011;3299;42.004;24.868;2023-02-11T03:16:54;4.85;;;3.55;;
6531;SDS011;3299;42.004;24.868;2023-02-11T03:19:28;6.00;;;3.55;;
6531;SDS011;3299;42.004;24.868;2023-02-11T03:21:59;4.50;;;3.67;;
6531;SDS011;3299;42.004;24.868;2023-02-11T03:24:30;3.85;;;3.47;;
6531;SDS011;3299;42.004;24.868;2023-02-11T03:27:00;4.85;;;3.30;;
6531;SDS011;3299;42.004;24.868;2023-02-11T03:29:42;6.70;;;4.05;;
6531;SDS011;3299;42.004;24.868;2023-02-11T03:37:50;5.22;;;3.83;;
6531;SDS011;3299;42.004;24.868;2023-02-11T03:40:23;2.92;;;2.72;;
6531;SDS011;3299;42.004;24.868;2023-02-11T03:43:01;4.82;;;3.83;;
6531;SDS011;3299;42.004;24.868;2023-02-11T03:45:32;3.50;;;3.20;;
6531;SDS011;3299;42.004;24.868;2023-02-11T03:48:11;5.00;;;3.92;;
6531;SDS011;3299;42.004;24.868;2023-02-11T03:50:41;3.33;;;3.03;;
6531;SDS011;3299;42.004;24.868;2023-02-11T03:53:08;4.95;;;3.72;;
6531;SDS011;3299;42.004;24.868;2023-02-11T03:55:36;4.55;;;3.08;;
6531;SDS011;3299;42.004;24.868;2023-02-11T03:58:03;4.32;;;3.13;;
6531;SDS011;3299;42.004;24.868;2023-02-11T04:00:30;8.07;;;3.35;;
6531;SDS011;3299;42.004;24.868;2023-02-11T04:02:56;4.18;;;3.78;;
6531;SDS011;3299;42.004;24.868;2023-02-11T04:05:22;5.93;;;4.20;;
6531;SDS011;3299;42.004;24.868;2023-02-11T04:07:47;6.25;;;3.88;;
6531;SDS011;3299;42.004;24.868;2023-02-11T04:10:12;5.15;;;3.50;;
6531;SDS011;3299;42.004;24.868;2023-02-11T04:12:38;6.03;;;3.42;;
6531;SDS011;3299;42.004;24.868;2023-02-11T04:15:04;3.58;;;3.28;;
6531;SDS011;3299;42.004;24.868;2023-02-11T04:17:30;3.35;;;3.08;;
6531;SDS011;3299;42.004;24.868;2023-02-11T04:19:55;5.03;;;3.97;;
6531;SDS011;3299;42.004;24.868;2023-02-11T04:22:20;3.40;;;3.10;;
6531;SDS011;3299;42.004;24.868;2023-02-11T04:24:46;4.82;;;3.38;;
6531;SDS011;3299;42.004;24.868;2023-02-11T04:27:11;4.53;;;3.80;;
6531;SDS011;3299;42.004;24.868;2023-02-11T04:29:37;4.38;;;3.17;;
6531;SDS011;3299;42.004;24.868;2023-02-11T04:32:02;6.28;;;2.95;;
6531;SDS011;3299;42.004;24.868;2023-02-11T04:34:27;5.90;;;3.45;;
6531;SDS011;3299;42.004;24.868;2023-02-11T04:36:53;4.93;;;3.28;;
6531;SDS011;3299;42.004;24.868;2023-02-11T04:39:18;5.93;;;3.60;;
6531;SDS011;3299;42.004;24.868;2023-02-11T04:41:46;3.90;;;3.60;;
6531;SDS011;3299;42.004;24.868;2023-02-11T04:44:12;3.75;;;3.40;;
6531;SDS011;3299;42.004;24.868;2023-02-11T04:46:37;3.63;;;3.13;;
6531;SDS011;3299;42.004;24.868;2023-02-11T04:49:03;7.57;;;4.47;;
6531;SDS011;3299;42.004;24.868;2023-02-11T04:51:28;7.57;;;4.50;;
6531;SDS011;3299;42.004;24.868;2023-02-11T04:53:54;7.25;;;5.40;;
6531;SDS011;3299;42.004;24.868;2023-02-11T04:56:19;6.45;;;5.20;;
6531;SDS011;3299;42.004;24.868;2023-02-11T04:58:44;6.38;;;5.20;;
6531;SDS011;3299;42.004;24.868;2023-02-11T05:01:11;10.70;;;5.63;;
6531;SDS011;3299;42.004;24.868;2023-02-11T05:03:38;6.03;;;4.45;;
6531;SDS011;3299;42.004;24.868;2023-02-11T05:06:04;8.13;;;5.35;;
6531;SDS011;3299;42.004;24.868;2023-02-11T05:08:30;11.43;;;6.03;;
6531;SDS011;3299;42.004;24.868;2023-02-11T05:10:56;8.68;;;5.00;;
6531;SDS011;3299;42.004;24.868;2023-02-11T05:13:26;4.70;;;4.10;;
6531;SDS011;3299;42.004;24.868;2023-02-11T05:15:52;4.20;;;3.65;;
6531;SDS011;3299;42.004;24.868;2023-02-11T05:18:17;6.78;;;5.18;;
6531;SDS011;3299;42.004;24.868;2023-02-11T05:20:42;7.63;;;5.03;;
6531;SDS011;3299;42.004;24.868;2023-02-11T05:23:08;7.45;;;5.22;;
6531;SDS011;3299;42.004;24.868;2023-02-11T05:25:34;4.65;;;4.25;;
6531;SDS011;3299;42.004;24.868;2023-02-11T05:28:00;5.25;;;4.75;;
6531;SDS011;3299;42.004;24.868;2023-02-11T05:30:25;7.28;;;4.70;;
6531;SDS011;3299;42.004;24.868;2023-02-11T05:32:51;6.65;;;4.07;;
6531;SDS011;3299;42.004;24.868;2023-02-11T05:35:16;9.68;;;4.93;;
6531;SDS011;3299;42.004;24.868;2023-02-11T05:37:42;7.90;;;5.80;;
6531;SDS011;3299;42.004;24.868;2023-02-11T05:40:07;10.45;;;5.68;;
6531;SDS011;3299;42.004;24.868;2023-02-11T05:42:33;9.32;;;5.28;;
6531;SDS011;3299;42.004;24.868;2023-02-11T05:44:59;7.15;;;5.63;;
6531;SDS011;3299;42.004;24.868;2023-02-11T05:47:24;6.03;;;5.43;;
6531;SDS011;3299;42.004;24.868;2023-02-11T05:49:52;7.47;;;5.63;;
6531;SDS011;3299;42.004;24.868;2023-02-11T05:52:18;7.70;;;5.68;;
6531;SDS011;3299;42.004;24.868;2023-02-11T05:54:44;10.98;;;7.20;;
6531;SDS011;3299;42.004;24.868;2023-02-11T05:57:10;7.65;;;5.63;;
6531;SDS011;3299;42.004;24.868;2023-02-11T05:59:35;3.95;;;3.47;;
6531;SDS011;3299;42.004;24.868;2023-02-11T06:02:00;3.50;;;3.15;;
6531;SDS011;3299;42.004;24.868;2023-02-11T06:04:26;4.55;;;3.45;;
6531;SDS011;3299;42.004;24.868;2023-02-11T06:06:51;3.58;;;3.25;;
6531;SDS011;3299;42.004;24.868;2023-02-11T06:09:17;4.13;;;3.10;;
6531;SDS011;3299;42.004;24.868;2023-02-11T06:11:42;4.55;;;4.10;;
6531;SDS011;3299;42.004;24.868;2023-02-11T06:14:08;6.00;;;4.45;;
6531;SDS011;3299;42.004;24.868;2023-02-11T06:16:33;8.48;;;4.70;;
6531;SDS011;3299;42.004;24.868;2023-02-11T06:18:59;5.95;;;4.18;;
6531;SDS011;3299;42.004;24.868;2023-02-11T06:21:24;4.47;;;3.53;;
6531;SDS011;3299;42.004;24.868;2023-02-11T06:23:50;5.50;;;3.53;;
6531;SDS011;3299;42.004;24.868;2023-02-11T06:26:17;3.90;;;3.45;;
6531;SDS011;3299;42.004;24.868;2023-02-11T06:28:44;5.55;;;3.90;;
6531;SDS011;3299;42.004;24.868;2023-02-11T06:31:10;5.82;;;4.22;;
6531;SDS011;3299;42.004;24.868;2023-02-11T06:33:36;6.18;;;4.97;;
6531;SDS011;3299;42.004;24.868;2023-02-11T06:36:02;7.35;;;4.90;;
6531;SDS011;3299;42.004;24.868;2023-02-11T06:38:29;6.05;;;4.68;;
6531;SDS011;3299;42.004;24.868;2023-02-11T06:40:54;9.43;;;6.10;;
6531;SDS011;3299;42.004;24.868;2023-02-11T06:43:20;7.75;;;5.05;;
6531;SDS011;3299;42.004;24.868;2023-02-11T06:45:50;6.43;;;4.95;;
6531;SDS011;3299;42.004;24.868;2023-02-11T06:48:17;4.72;;;4.18;;
6531;SDS011;3299;42.004;24.868;2023-02-11T06:50:42;8.13;;;5.40;;
6531;SDS011;3299;42.004;24.868;2023-02-11T06:53:07;7.38;;;5.70;;
6531;SDS011;3299;42.004;24.868;2023-02-11T06:55:35;13.48;;;7.65;;
6531;SDS011;3299;42.004;24.868;2023-02-11T06:58:01;11.02;;;7.60;;
6531;SDS011;3299;42.004;24.868;2023-02-11T07:00:26;11.50;;;6.70;;
6531;SDS011;3299;42.004;24.868;2023-02-11T07:02:53;8.63;;;5.70;;
6531;SDS011;3299;42.004;24.868;2023-02-11T07:05:19;8.73;;;3.47;;
6531;SDS011;3299;42.004;24.868;2023-02-11T07:07:44;4.97;;;2.97;;
6531;SDS011;3299;42.004;24.868;2023-02-11T07:10:10;3.47;;;3.20;;
6531;SDS011;3299;42.004;24.868;2023-02-11T07:12:38;10.85;;;5.53;;
6531;SDS011;3299;42.004;24.868;2023-02-11T07:15:04;12.65;;;5.80;;
6531;SDS011;3299;42.004;24.868;2023-02-11T07:17:30;10.00;;;5.95;;
6531;SDS011;3299;42.004;24.868;2023-02-11T07:19:55;8.05;;;4.90;;
6531;SDS011;3299;42.004;24.868;2023-02-11T07:22:23;13.77;;;7.85;;
6531;SDS011;3299;42.004;24.868;2023-02-11T07:24:51;4.82;;;3.97;;
6531;SDS011;3299;42.004;24.868;2023-02-11T07:27:16;6.38;;;3.65;;
6531;SDS011;3299;42.004;24.868;2023-02-11T07:29:41;8.60;;;5.55;;
6531;SDS011;3299;42.004;24.868;2023-02-11T07:32:07;7.65;;;5.95;;
6531;SDS011;3299;42.004;24.868;2023-02-11T07:34:33;8.18;;;5.40;;
6531;SDS011;3299;42.004;24.868;2023-02-11T07:36:58;9.88;;;6.30;;
6531;SDS011;3299;42.004;24.868;2023-02-11T07:39:23;7.90;;;5.72;;
6531;SDS011;3299;42.004;24.868;2023-02-11T07:41:51;7.43;;;6.32;;
6531;SDS011;3299;42.004;24.868;2023-02-11T07:44:17;6.78;;;5.07;;
6531;SDS011;3299;42.004;24.868;2023-02-11T07:46:43;6.68;;;4.20;;
6531;SDS011;3299;42.004;24.868;2023-02-11T07:49:09;6.45;;;5.07;;
6531;SDS011;3299;42.004;24.868;2023-02-11T07:51:36;8.52;;;7.82;;
6531;SDS011;3299;42.004;24.868;2023-02-11T07:54:01;7.07;;;6.43;;
6531;SDS011;3299;42.004;24.868;2023-02-11T07:56:27;5.97;;;5.28;;
6531;SDS011;3299;42.004;24.868;2023-02-11T07:58:53;6.32;;;5.68;;
6531;SDS011;3299;42.004;24.868;2023-02-11T08:01:22;5.65;;;5.15;;
6531;SDS011;3299;42.004;24.868;2023-02-11T08:03:51;8.23;;;5.75;;
6531;SDS011;3299;42.004;24.868;2023-02-11T08:06:17;12.70;;;9.15;;
6531;SDS011;3299;42.004;24.868;2023-02-11T08:08:45;17.40;;;10.38;;
6531;SDS011;3299;42.004;24.868;2023-02-11T08:11:12;17.35;;;9.80;;
6531;SDS011;3299;42.004;24.868;2023-02-11T08:13:39;14.27;;;8.55;;
6531;SDS011;3299;42.004;24.868;2023-02-11T08:16:06;12.70;;;8.27;;
6531;SDS011;3299;42.004;24.868;2023-02-11T08:18:32;15.60;;;8.80;;
6531;SDS011;3299;42.004;24.868;2023-02-11T08:21:07;11.55;;;7.70;;
6531;SDS011;3299;42.004;24.868;2023-02-11T08:23:37;13.32;;;7.93;;
6531;SDS011;3299;42.004;24.868;2023-02-11T08:26:05;16.27;;;9.27;;
6531;SDS011;3299;42.004;24.868;2023-02-11T08:28:36;12.50;;;8.30;;
6531;SDS011;3299;42.004;24.868;2023-02-11T08:31:07;18.73;;;9.10;;
6531;SDS011;3299;42.004;24.868;2023-02-11T08:33:36;16.65;;;10.13;;
6531;SDS011;3299;42.004;24.868;2023-02-11T08:36:08;19.55;;;8.65;;
6531;SDS011;3299;42.004;24.868;2023-02-11T08:38:34;12.57;;;7.97;;
6531;SDS011;3299;42.004;24.868;2023-02-11T08:41:00;13.88;;;9.23;;
6531;SDS011;3299;42.004;24.868;2023-02-11T08:43:25;15.48;;;8.65;;
6531;SDS011;3299;42.004;24.868;2023-02-11T08:45:51;12.45;;;8.35;;
6531;SDS011;3299;42.004;24.868;2023-02-11T08:48:16;13.45;;;7.93;;
6531;SDS011;3299;42.004;24.868;2023-02-11T08:50:44;17.60;;;9.82;;
6531;SDS011;3299;42.004;24.868;2023-02-11T08:53:09;25.40;;;13.93;;
6531;SDS011;3299;42.004;24.868;2023-02-11T08:55:35;16.67;;;9.68;;
6531;SDS011;3299;42.004;24.868;2023-02-11T08:58:00;22.88;;;11.85;;
6531;SDS011;3299;42.004;24.868;2023-02-11T09:00:26;88.00;;;36.75;;
6531;SDS011;3299;42.004;24.868;2023-02-11T09:02:51;35.47;;;15.57;;
6531;SDS011;3299;42.004;24.868;2023-02-11T09:05:17;20.98;;;12.50;;
6531;SDS011;3299;42.004;24.868;2023-02-11T09:07:42;50.30;;;22.92;;
6531;SDS011;3299;42.004;24.868;2023-02-11T09:10:08;48.78;;;24.27;;
6531;SDS011;3299;42.004;24.868;2023-02-11T09:12:33;23.27;;;13.63;;
6531;SDS011;3299;42.004;24.868;2023-02-11T09:14:59;36.72;;;16.52;;
6531;SDS011;3299;42.004;24.868;2023-02-11T09:17:24;22.75;;;11.93;;
6531;SDS011;3299;42.004;24.868;2023-02-11T09:19:50;22.23;;;13.43;;
6531;SDS011;3299;42.004;24.868;2023-02-11T09:22:15;26.73;;;13.02;;
6531;SDS011;3299;42.004;24.868;2023-02-11T09:24:41;15.80;;;10.20;;
6531;SDS011;3299;42.004;24.868;2023-02-11T09:27:06;19.13;;;12.07;;
6531;SDS011;3299;42.004;24.868;2023-02-11T09:29:31;24.17;;;13.77;;
6531;SDS011;3299;42.004;24.868;2023-02-11T09:31:57;26.55;;;14.85;;
6531;SDS011;3299;42.004;24.868;2023-02-11T09:34:22;19.50;;;12.35;;
6531;SDS011;3299;42.004;24.868;2023-02-11T09:36:48;15.50;;;9.45;;
6531;SDS011;3299;42.004;24.868;2023-02-11T09:39:15;17.95;;;10.10;;
6531;SDS011;3299;42.004;24.868;2023-02-11T09:41:57;14.90;;;9.63;;
6531;SDS011;3299;42.004;24.868;2023-02-11T09:44:33;16.08;;;9.13;;
6531;SDS011;3299;42.004;24.868;2023-02-11T09:47:01;17.27;;;9.00;;
6531;SDS011;3299;42.004;24.868;2023-02-11T09:49:39;14.07;;;9.13;;
6531;SDS011;3299;42.004;24.868;2023-02-11T09:54:55;19.15;;;11.77;;
6531;SDS011;3299;42.004;24.868;2023-02-11T09:57:22;17.65;;;10.63;;
6531;SDS011;3299;42.004;24.868;2023-02-11T09:59:53;17.90;;;12.00;;
6531;SDS011;3299;42.004;24.868;2023-02-11T10:08:19;32.17;;;18.90;;
6531;SDS011;3299;42.004;24.868;2023-02-11T10:10:59;24.08;;;15.63;;
6531;SDS011;3299;42.004;24.868;2023-02-11T10:13:42;22.90;;;13.40;;
6531;SDS011;3299;42.004;24.868;2023-02-11T10:24:18;19.33;;;11.52;;
6531;SDS011;3299;42.004;24.868;2023-02-11T10:26:44;21.45;;;14.00;;
6531;SDS011;3299;42.004;24.868;2023-02-11T10:31:54;29.42;;;18.75;;
6531;SDS011;3299;42.004;24.868;2023-02-11T10:34:21;19.25;;;12.77;;
6531;SDS011;3299;42.004;24.868;2023-02-11T10:36:47;19.48;;;11.70;;
6531;SDS011;3299;42.004;24.868;2023-02-11T10:41:39;21.30;;;12.75;;
6531;SDS011;3299;42.004;24.868;2023-02-11T10:44:07;23.27;;;11.80;;
6531;SDS011;3299;42.004;24.868;2023-02-11T10:46:43;21.27;;;13.40;;
6531;SDS011;3299;42.004;24.868;2023-02-11T10:49:09;20.98;;;12.43;;
6531;SDS011;3299;42.004;24.868;2023-02-11T10:52:11;23.48;;;13.30;;
6531;SDS011;3299;42.004;24.868;2023-02-11T10:54:36;21.88;;;12.65;;
6531;SDS011;3299;42.004;24.868;2023-02-11T10:57:02;19.10;;;13.20;;
6531;SDS011;3299;42.004;24.868;2023-02-11T10:59:29;19.95;;;13.48;;
6531;SDS011;3299;42.004;24.868;2023-02-11T11:01:58;21.95;;;13.77;;
6531;SDS011;3299;42.004;24.868;2023-02-11T11:17:35;15.48;;;10.60;;
6531;SDS011;3299;42.004;24.868;2023-02-11T11:22:46;14.20;;;8.38;;
6531;SDS011;3299;42.004;24.868;2023-02-11T11:25:57;14.88;;;9.13;;
6531;SDS011;3299;42.004;24.868;2023-02-11T11:28:15;13.55;;;9.45;;
6531;SDS011;3299;42.004;24.868;2023-02-11T11:30:44;16.55;;;8.95;;
6531;SDS011;3299;42.004;24.868;2023-02-11T11:33:20;11.95;;;8.73;;
6531;SDS011;3299;42.004;24.868;2023-02-11T11:35:59;16.92;;;9.45;;
6531;SDS011;3299;42.004;24.868;2023-02-11T11:38:28;14.25;;;8.57;;
6531;SDS011;3299;42.004;24.868;2023-02-11T11:44:16;14.25;;;8.98;;
6531;SDS011;3299;42.004;24.868;2023-02-11T11:47:14;26.38;;;13.07;;
6531;SDS011;3299;42.004;24.868;2023-02-11T11:49:49;15.25;;;9.40;;
6531;SDS011;3299;42.004;24.868;2023-02-11T11:54:54;17.27;;;10.65;;
6531;SDS011;3299;42.004;24.868;2023-02-11T11:57:25;15.73;;;9.50;;
6531;SDS011;3299;42.004;24.868;2023-02-11T11:59:52;12.63;;;8.50;;
6531;SDS011;3299;42.004;24.868;2023-02-11T12:10:57;13.30;;;9.57;;
6531;SDS011;3299;42.004;24.868;2023-02-11T12:16:36;18.10;;;11.45;;
6531;SDS011;3299;42.004;24.868;2023-02-11T12:19:16;21.27;;;11.77;;
6531;SDS011;3299;42.004;24.868;2023-02-11T12:22:29;17.30;;;10.48;;
6531;SDS011;3299;42.004;24.868;2023-02-11T12:32:49;16.08;;;10.50;;
6531;SDS011;3299;42.004;24.868;2023-02-11T12:41:28;16.05;;;9.27;;
6531;SDS011;3299;42.004;24.868;2023-02-11T12:44:34;16.65;;;10.32;;
6531;SDS011;3299;42.004;24.868;2023-02-11T12:47:07;18.27;;;10.85;;
6531;SDS011;3299;42.004;24.868;2023-02-11T12:55:32;15.98;;;9.80;;
6531;SDS011;3299;42.004;24.868;2023-02-11T12:58:01;16.77;;;9.00;;
6531;SDS011;3299;42.004;24.868;2023-02-11T13:00:48;17.05;;;9.77;;
6531;SDS011;3299;42.004;24.868;2023-02-11T13:03:20;13.32;;;8.70;;
6531;SDS011;3299;42.004;24.868;2023-02-11T13:05:59;14.57;;;8.82;;
6531;SDS011;3299;42.004;24.868;2023-02-11T13:08:49;18.88;;;8.88;;
6531;SDS011;3299;42.004;24.868;2023-02-11T13:11:32;22.00;;;10.77;;
6531;SDS011;3299;42.004;24.868;2023-02-11T13:24:45;12.35;;;8.18;;
6531;SDS011;3299;42.004;24.868;2023-02-11T13:27:30;16.38;;;9.40;;
6531;SDS011;3299;42.004;24.868;2023-02-11T13:30:22;19.77;;;8.93;;
6531;SDS011;3299;42.004;24.868;2023-02-11T13:37:58;14.55;;;9.35;;
6531;SDS011;3299;42.004;24.868;2023-02-11T13:40:26;16.33;;;10.15;;
6531;SDS011;3299;42.004;24.868;2023-02-11T13:42:57;14.15;;;9.23;;
6531;SDS011;3299;42.004;24.868;2023-02-11T13:47:55;14.25;;;10.57;;
6531;SDS011;3299;42.004;24.868;2023-02-11T13:50:24;13.30;;;8.90;;
6531;SDS011;3299;42.004;24.868;2023-02-11T13:53:00;19.13;;;9.25;;
6531;SDS011;3299;42.004;24.868;2023-02-11T13:55:27;13.60;;;8.55;;
6531;SDS011;3299;42.004;24.868;2023-02-11T14:22:45;16.92;;;8.98;;
6531;SDS011;3299;42.004;24.868;2023-02-11T14:25:18;16.80;;;8.35;;
6531;SDS011;3299;42.004;24.868;2023-02-11T14:27:49;12.70;;;8.52;;
6531;SDS011;3299;42.004;24.868;2023-02-11T14:35:49;14.25;;;8.27;;
6531;SDS011;3299;42.004;24.868;2023-02-11T14:41:16;14.60;;;8.35;;
6531;SDS011;3299;42.004;24.868;2023-02-11T14:43:43;11.95;;;7.68;;
6531;SDS011;3299;42.004;24.868;2023-02-11T14:46:13;10.68;;;7.75;;
6531;SDS011;3299;42.004;24.868;2023-02-11T14:48:42;11.95;;;8.10;;
6531;SDS011;3299;42.004;24.868;2023-02-11T14:54:13;11.18;;;7.38;;
6531;SDS011;3299;42.004;24.868;2023-02-11T14:56:42;13.93;;;8.45;;
6531;SDS011;3299;42.004;24.868;2023-02-11T14:59:14;12.00;;;7.57;;
6531;SDS011;3299;42.004;24.868;2023-02-11T15:01:44;18.55;;;9.77;;
6531;SDS011;3299;42.004;24.868;2023-02-11T15:04:23;13.32;;;8.40;;
6531;SDS011;3299;42.004;24.868;2023-02-11T15:06:50;13.70;;;8.32;;
6531;SDS011;3299;42.004;24.868;2023-02-11T15:11:42;15.15;;;9.07;;
6531;SDS011;3299;42.004;24.868;2023-02-11T15:14:19;15.15;;;8.82;;
6531;SDS011;3299;42.004;24.868;2023-02-11T15:16:48;17.50;;;10.73;;
6531;SDS011;3299;42.004;24.868;2023-02-11T15:21:48;16.77;;;9.93;;
6531;SDS011;3299;42.004;24.868;2023-02-11T15:24:23;18.58;;;9.45;;
6531;SDS011;3299;42.004;24.868;2023-02-11T15:29:23;14.57;;;8.70;;
6531;SDS011;3299;42.004;24.868;2023-02-11T15:34:50;13.80;;;8.95;;
6531;SDS011;3299;42.004;24.868;2023-02-11T15:37:24;13.93;;;8.68;;
6531;SDS011;3299;42.004;24.868;2023-02-11T15:39:52;14.50;;;8.70;;
6531;SDS011;3299;42.004;24.868;2023-02-11T15:44:49;15.48;;;10.80;;
6531;SDS011;3299;42.004;24.868;2023-02-11T15:47:33;20.42;;;9.45;;
6531;SDS011;3299;42.004;24.868;2023-02-11T15:49:59;18.40;;;11.05;;
6531;SDS011;3299;42.004;24.868;2023-02-11T15:52:25;17.55;;;10.70;;
6531;SDS011;3299;42.004;24.868;2023-02-11T15:54:52;14.50;;;8.40;;
6531;SDS011;3299;42.004;24.868;2023-02-11T15:57:20;15.25;;;7.97;;
6531;SDS011;3299;42.004;24.868;2023-02-11T15:59:50;18.88;;;10.27;;
6531;SDS011;3299;42.004;24.868;2023-02-11T16:05:02;12.30;;;7.20;;
6531;SDS011;3299;42.004;24.868;2023-02-11T16:07:37;9.10;;;6.78;;
6531;SDS011;3299;42.004;24.868;2023-02-11T16:10:15;10.45;;;6.18;;
6531;SDS011;3299;42.004;24.868;2023-02-11T16:12:40;10.13;;;6.10;;
6531;SDS011;3299;42.004;24.868;2023-02-11T16:15:27;10.55;;;6.28;;
6531;SDS011;3299;42.004;24.868;2023-02-11T16:18:02;10.75;;;6.88;;
6531;SDS011;3299;42.004;24.868;2023-02-11T16:20:37;8.55;;;6.72;;
6531;SDS011;3299;42.004;24.868;2023-02-11T16:23:03;10.73;;;7.50;;
6531;SDS011;3299;42.004;24.868;2023-02-11T16:25:30;12.05;;;6.30;;
6531;SDS011;3299;42.004;24.868;2023-02-11T16:27:58;10.65;;;5.85;;
6531;SDS011;3299;42.004;24.868;2023-02-11T16:32:58;12.00;;;7.55;;
6531;SDS011;3299;42.004;24.868;2023-02-11T16:35:24;11.70;;;7.10;;
6531;SDS011;3299;42.004;24.868;2023-02-11T16:37:50;11.38;;;6.70;;
6531;SDS011;3299;42.004;24.868;2023-02-11T16:40:15;8.35;;;6.53;;
6531;SDS011;3299;42.004;24.868;2023-02-11T16:42:41;7.32;;;6.10;;
6531;SDS011;3299;42.004;24.868;2023-02-11T16:45:06;8.93;;;6.25;;
6531;SDS011;3299;42.004;24.868;2023-02-11T16:47:33;15.77;;;7.13;;
6531;SDS011;3299;42.004;24.868;2023-02-11T16:49:59;9.00;;;6.40;;
6531;SDS011;3299;42.004;24.868;2023-02-11T16:52:27;10.18;;;6.40;;
6531;SDS011;3299;42.004;24.868;2023-02-11T16:54:55;8.93;;;6.63;;
6531;SDS011;3299;42.004;24.868;2023-02-11T16:57:21;12.10;;;5.28;;
6531;SDS011;3299;42.004;24.868;2023-02-11T16:59:48;8.23;;;6.28;;
6531;SDS011;3299;42.004;24.868;2023-02-11T17:02:15;6.60;;;5.15;;
6531;SDS011;3299;42.004;24.868;2023-02-11T17:04:43;11.07;;;6.28;;
6531;SDS011;3299;42.004;24.868;2023-02-11T17:07:09;10.15;;;5.57;;
6531;SDS011;3299;42.004;24.868;2023-02-11T17:09:35;8.70;;;6.20;;
6531;SDS011;3299;42.004;24.868;2023-02-11T17:12:00;10.32;;;6.85;;
6531;SDS011;3299;42.004;24.868;2023-02-11T17:14:25;7.78;;;6.13;;
6531;SDS011;3299;42.004;24.868;2023-02-11T17:16:51;10.80;;;6.60;;
6531;SDS011;3299;42.004;24.868;2023-02-11T17:19:17;9.02;;;5.60;;
6531;SDS011;3299;42.004;24.868;2023-02-11T17:21:46;9.85;;;5.35;;
6531;SDS011;3299;42.004;24.868;2023-02-11T17:24:13;6.57;;;5.25;;
6531;SDS011;3299;42.004;24.868;2023-02-11T17:26:40;11.43;;;5.65;;
6531;SDS011;3299;42.004;24.868;2023-02-11T17:29:07;7.45;;;5.78;;
6531;SDS011;3299;42.004;24.868;2023-02-11T17:31:34;8.55;;;6.18;;
6531;SDS011;3299;42.004;24.868;2023-02-11T17:34:00;9.48;;;5.95;;
6531;SDS011;3299;42.004;24.868;2023-02-11T17:36:26;13.40;;;5.85;;
6531;SDS011;3299;42.004;24.868;2023-02-11T17:38:53;10.05;;;5.43;;
6531;SDS011;3299;42.004;24.868;2023-02-11T17:41:19;8.73;;;5.40;;
6531;SDS011;3299;42.004;24.868;2023-02-11T17:43:44;6.53;;;4.80;;
6531;SDS011;3299;42.004;24.868;2023-02-11T17:46:10;8.63;;;5.15;;
6531;SDS011;3299;42.004;24.868;2023-02-11T17:48:36;8.65;;;5.07;;
6531;SDS011;3299;42.004;24.868;2023-02-11T17:51:03;8.82;;;4.80;;
6531;SDS011;3299;42.004;24.868;2023-02-11T17:53:29;8.05;;;5.55;;
6531;SDS011;3299;42.004;24.868;2023-02-11T17:55:55;6.20;;;4.43;;
6531;SDS011;3299;42.004;24.868;2023-02-11T17:58:21;8.30;;;5.20;;
6531;SDS011;3299;42.004;24.868;2023-02-11T18:00:47;8.85;;;5.43;;
6531;SDS011;3299;42.004;24.868;2023-02-11T18:03:12;7.47;;;4.90;;
6531;SDS011;3299;42.004;24.868;2023-02-11T18:05:38;7.47;;;5.22;;
6531;SDS011;3299;42.004;24.868;2023-02-11T18:08:04;5.68;;;4.75;;
6531;SDS011;3299;42.004;24.868;2023-02-11T18:10:30;5.43;;;3.72;;